Time;durP1;ratioP1;P1;durP2;ratioP2;P2;SDS_P1;SDS_P2;PMS_P1;PMS_P2;Temp;Humidity;BMP_temperature;BMP_pressure;BME280_temperature;BME280_humidity;BME280_pressure;Samples;Min_cycle;Max_cycle;Signal;HPM_P1;HPM_P2
2022/01/05 00:01:13;;;;;;;7.73;1.60;;;2.40;99.90;;;;;;5047868;28;20040;-93
2022/01/05 00:03:39;;;;;;;6.67;1.70;;;2.40;99.90;;;;;;5061181;28;20098;-93
2022/01/05 00:06:04;;;;;;;6.87;1.83;;;2.40;99.90;;;;;;5041366;28;20119;-93
2022/01/05 00:08:30;;;;;;;9.23;1.90;;;2.40;99.90;;;;;;5080689;28;20079;-92
2022/01/05 00:10:56;;;;;;;5.13;1.47;;;2.40;99.90;;;;;;5045401;28;20041;-91
2022/01/05 00:13:22;;;;;;;8.37;1.80;;;2.20;99.90;;;;;;5061152;28;20048;-92
2022/01/05 00:15:48;;;;;;;7.13;1.70;;;2.30;99.90;;;;;;5064660;28;20033;-92
2022/01/05 00:18:13;;;;;;;7.67;1.87;;;2.20;99.90;;;;;;5064586;28;20058;-92
2022/01/05 00:20:40;;;;;;;4.83;1.77;;;2.20;99.90;;;;;;5064515;28;20047;-93
2022/01/05 00:23:05;;;;;;;5.67;1.70;;;2.20;99.90;;;;;;5080612;28;20044;-92
2022/01/05 00:25:31;;;;;;;13.27;2.30;;;2.20;99.90;;;;;;5074515;28;20055;-93
2022/01/05 00:27:57;;;;;;;8.33;1.80;;;2.30;99.90;;;;;;5061819;28;20036;-92
2022/01/05 00:30:23;;;;;;;9.67;1.80;;;2.20;99.90;;;;;;5056962;28;20079;-92
2022/01/05 00:32:48;;;;;;;7.47;1.47;;;2.30;99.90;;;;;;5064704;28;20101;-92
2022/01/05 00:35:14;;;;;;;5.40;1.70;;;2.30;99.90;;;;;;5079203;28;20082;-93
2022/01/05 00:37:40;;;;;;;4.93;1.60;;;2.40;99.90;;;;;;5084993;28;20044;-94
2022/01/05 00:40:06;;;;;;;5.93;1.70;;;2.30;99.90;;;;;;5073709;28;20096;-93
2022/01/05 00:42:32;;;;;;;6.77;2.13;;;2.40;99.90;;;;;;5069689;28;20039;-92
2022/01/05 00:44:59;;;;;;;9.93;2.03;;;2.40;99.90;;;;;;5067538;28;20040;-94
2022/01/05 00:47:25;;;;;;;9.10;2.10;;;2.40;99.90;;;;;;5089231;28;20044;-92
2022/01/05 00:49:51;;;;;;;6.53;1.67;;;2.50;99.90;;;;;;5084267;28;20097;-93
2022/01/05 00:52:16;;;;;;;14.90;1.97;;;2.50;99.90;;;;;;5049962;28;20511;-94
2022/01/05 00:54:42;;;;;;;14.23;2.23;;;2.50;99.90;;;;;;5077042;28;20039;-91
2022/01/05 00:57:08;;;;;;;11.47;1.90;;;2.60;99.90;;;;;;5065384;28;20043;-93
2022/01/05 00:59:34;;;;;;;7.63;1.90;;;2.50;99.90;;;;;;5076339;28;20104;-93
2022/01/05 01:01:59;;;;;;;9.57;2.03;;;2.60;99.90;;;;;;5100604;28;20103;-92
2022/01/05 01:04:25;;;;;;;7.67;1.97;;;2.60;99.90;;;;;;5076743;28;20097;-92
2022/01/05 01:06:51;;;;;;;8.13;1.53;;;2.60;99.90;;;;;;5078814;28;20043;-93
2022/01/05 01:09:17;;;;;;;7.97;1.50;;;2.60;99.90;;;;;;5078716;28;20054;-94
2022/01/05 01:11:42;;;;;;;9.30;1.87;;;2.60;99.90;;;;;;5100888;28;20623;-91
2022/01/05 01:14:08;;;;;;;5.83;1.50;;;2.60;99.90;;;;;;5100242;28;20040;-93
2022/01/05 01:16:34;;;;;;;5.80;1.37;;;2.50;99.90;;;;;;5084106;28;20044;-94
2022/01/05 01:19:00;;;;;;;10.37;1.80;;;2.50;99.90;;;;;;5084766;28;20047;-93
2022/01/05 01:21:26;;;;;;;8.03;1.70;;;2.40;99.90;;;;;;5074463;28;20135;-93
2022/01/05 01:23:55;;;;;;;5.43;1.30;;;2.50;99.90;;;;;;5078792;28;20048;-93
2022/01/05 01:26:30;;;;;;;3.83;1.40;;;2.50;99.90;;;;;;5053707;28;20035;-94
2022/01/05 01:28:57;;;;;;;5.10;1.43;;;2.50;99.90;;;;;;5071352;28;20099;-93
2022/01/05 01:31:24;;;;;;;5.33;1.60;;;2.50;99.90;;;;;;5114048;28;20051;-92
2022/01/05 01:33:51;;;;;;;11.47;1.70;;;2.40;99.90;;;;;;5086332;28;20047;-93
2022/01/05 01:36:17;;;;;;;6.63;1.90;;;2.40;99.90;;;;;;5071386;28;20069;-95
2022/01/05 01:38:43;;;;;;;8.40;1.77;;;2.40;99.90;;;;;;5098190;28;20048;-94
2022/01/05 01:41:10;;;;;;;8.63;1.67;;;2.40;99.90;;;;;;5092552;28;20088;-92
2022/01/05 01:43:36;;;;;;;6.63;1.60;;;2.40;99.90;;;;;;5071270;28;20118;-92
2022/01/05 01:46:04;;;;;;;11.03;1.63;;;2.30;99.90;;;;;;5118612;28;20035;-95
2022/01/05 01:48:30;;;;;;;10.43;1.50;;;2.30;99.90;;;;;;5090223;28;20642;-93
2022/01/05 01:50:56;;;;;;;14.03;2.10;;;2.30;99.90;;;;;;5117502;28;20037;-93
2022/01/05 01:53:22;;;;;;;8.70;1.67;;;2.30;99.90;;;;;;5090131;28;20131;-92
2022/01/05 01:55:49;;;;;;;6.83;1.60;;;2.30;99.90;;;;;;5080387;28;20483;-92
2022/01/05 01:58:17;;;;;;;7.60;2.17;;;2.30;99.90;;;;;;5091626;28;20036;-94
2022/01/05 02:00:43;;;;;;;9.57;1.67;;;2.40;99.90;;;;;;5080128;28;20040;-92
2022/01/05 02:03:11;;;;;;;9.37;1.90;;;2.40;99.90;;;;;;5061812;28;20055;-93
2022/01/05 02:05:37;;;;;;;7.80;1.80;;;2.40;99.90;;;;;;5111928;28;20123;-93
2022/01/05 02:08:03;;;;;;;10.33;1.87;;;2.40;99.90;;;;;;5065716;28;20044;-93
2022/01/05 02:10:28;;;;;;;9.93;1.87;;;2.40;99.90;;;;;;5079574;28;20094;-93
2022/01/05 02:12:54;;;;;;;5.97;1.67;;;2.40;99.90;;;;;;5069672;28;20072;-93
2022/01/05 02:15:21;;;;;;;6.83;1.80;;;2.40;99.90;;;;;;5065086;28;20047;-92
2022/01/05 02:20:31;;;;;;;12.20;2.17;;;2.40;99.90;;;;;;5101732;28;20107;-93
2022/01/05 02:22:58;;;;;;;6.73;1.50;;;2.40;99.90;;;;;;5099717;28;20055;-93
2022/01/05 02:25:24;;;;;;;8.07;1.97;;;2.40;99.90;;;;;;5081325;28;20062;-92
2022/01/05 02:27:52;;;;;;;8.00;2.17;;;2.40;99.90;;;;;;5093453;28;20083;-92
2022/01/05 02:30:23;;;;;;;7.73;1.83;;;2.40;99.90;;;;;;5104885;28;20096;-93
2022/01/05 02:32:50;;;;;;;11.00;1.80;;;2.40;99.90;;;;;;5093778;28;20043;-92
2022/01/05 02:35:16;;;;;;;13.50;2.20;;;2.30;99.90;;;;;;5066529;28;20550;-93
2022/01/05 02:37:45;;;;;;;6.60;1.83;;;2.40;99.90;;;;;;5083496;28;20075;-93
2022/01/05 02:40:13;;;;;;;6.50;1.83;;;2.40;99.90;;;;;;5085182;28;20048;-91
2022/01/05 02:42:39;;;;;;;9.83;1.80;;;2.40;99.90;;;;;;5080523;28;20793;-93
2022/01/05 02:45:06;;;;;;;10.43;2.50;;;2.40;99.90;;;;;;5109113;28;20589;-93
2022/01/05 02:47:31;;;;;;;11.87;2.10;;;2.40;99.90;;;;;;5067045;28;20031;-94
2022/01/05 02:49:58;;;;;;;11.37;2.43;;;2.30;99.90;;;;;;5100197;28;20040;-93
2022/01/05 02:52:24;;;;;;;13.43;2.70;;;2.40;99.90;;;;;;5093219;28;20050;-92
2022/01/05 02:54:49;;;;;;;12.20;2.57;;;2.40;99.90;;;;;;5084296;28;20071;-93
2022/01/05 02:57:15;;;;;;;7.77;2.33;;;2.40;99.90;;;;;;5066329;28;20152;-94
2022/01/05 02:59:41;;;;;;;8.43;1.80;;;2.40;99.90;;;;;;5072893;28;20040;-93
2022/01/05 03:02:07;;;;;;;12.67;2.00;;;2.40;99.90;;;;;;5110798;28;20064;-93
2022/01/05 03:04:33;;;;;;;12.07;2.23;;;2.40;99.90;;;;;;5078252;28;20142;-92
2022/01/05 03:06:58;;;;;;;7.33;1.80;;;2.40;99.90;;;;;;5082188;28;20047;-94
2022/01/05 03:09:24;;;;;;;12.13;2.67;;;2.40;99.90;;;;;;5071372;28;20058;-93
2022/01/05 03:11:50;;;;;;;6.73;2.20;;;2.40;99.90;;;;;;5095007;28;20116;-94
2022/01/05 03:14:16;;;;;;;8.13;2.13;;;2.40;99.90;;;;;;5088255;28;20397;-93
2022/01/05 03:16:41;;;;;;;12.17;2.20;;;2.40;99.90;;;;;;5099204;28;20134;-91
2022/01/05 03:19:08;;;;;;;6.80;1.80;;;2.50;99.90;;;;;;5083715;28;20063;-93
2022/01/05 03:21:33;;;;;;;14.30;1.90;;;2.40;99.90;;;;;;5067744;28;20036;-92
2022/01/05 03:23:59;;;;;;;11.50;2.43;;;2.50;99.90;;;;;;5116869;28;20160;-92
2022/01/05 03:26:25;;;;;;;11.43;2.10;;;2.50;99.90;;;;;;5093368;28;20046;-92
2022/01/05 03:28:51;;;;;;;10.10;2.10;;;2.50;99.90;;;;;;5069114;28;20037;-93
2022/01/05 03:31:17;;;;;;;10.87;2.10;;;2.50;99.90;;;;;;5089087;28;20044;-94
2022/01/05 03:33:42;;;;;;;10.27;2.13;;;2.60;99.90;;;;;;5047426;28;20056;-92
2022/01/05 03:36:09;;;;;;;17.03;3.33;;;2.50;99.90;;;;;;5075834;28;20092;-93
2022/01/05 03:38:34;;;;;;;10.43;2.20;;;2.60;99.90;;;;;;5048965;28;20048;-93
2022/01/05 03:41:00;;;;;;;12.00;2.40;;;2.70;99.90;;;;;;5048096;28;20064;-94
2022/01/05 03:43:26;;;;;;;18.40;4.13;;;2.70;99.90;;;;;;5083875;28;20050;-92
2022/01/05 03:45:52;;;;;;;19.47;2.97;;;2.70;99.90;;;;;;5082536;28;20061;-93
2022/01/05 03:48:19;;;;;;;16.30;2.23;;;2.80;99.90;;;;;;5069196;28;20048;-92
2022/01/05 03:50:45;;;;;;;10.57;2.30;;;2.80;99.90;;;;;;5065822;28;20067;-91
2022/01/05 03:53:12;;;;;;;13.70;2.27;;;2.80;99.90;;;;;;5097917;28;20042;-93
2022/01/05 03:55:41;;;;;;;14.87;3.13;;;2.90;99.90;;;;;;5075757;28;20104;-92
2022/01/05 03:58:07;;;;;;;13.23;2.17;;;3.00;99.90;;;;;;5073206;28;20445;-93
2022/01/05 04:00:36;;;;;;;15.10;2.27;;;3.00;99.90;;;;;;5077075;28;20040;-94
2022/01/05 04:03:02;;;;;;;10.40;2.40;;;3.00;99.90;;;;;;5070970;28;20047;-93
2022/01/05 04:05:28;;;;;;;11.17;2.87;;;3.00;99.90;;;;;;5060940;28;20411;-93
2022/01/05 04:07:55;;;;;;;10.40;2.60;;;3.00;99.90;;;;;;5072367;28;20050;-92
2022/01/05 04:10:21;;;;;;;13.83;3.20;;;3.00;99.90;;;;;;5081389;28;20047;-93
2022/01/05 04:12:48;;;;;;;19.50;2.33;;;3.00;99.90;;;;;;5074250;28;20044;-93
2022/01/05 04:15:14;;;;;;;16.77;3.03;;;3.00;99.90;;;;;;5068402;28;20051;-93
2022/01/05 04:17:40;;;;;;;12.80;2.17;;;3.00;99.90;;;;;;5063451;28;20050;-92
2022/01/05 04:20:06;;;;;;;15.63;2.70;;;3.00;99.90;;;;;;5098340;28;20032;-92
2022/01/05 04:22:32;;;;;;;13.73;2.63;;;3.00;99.90;;;;;;5071437;28;20045;-91
2022/01/05 04:24:58;;;;;;;12.33;2.40;;;3.10;99.90;;;;;;5073436;28;20038;-91
2022/01/05 04:27:24;;;;;;;8.73;2.03;;;3.10;99.90;;;;;;5069445;28;20108;-92
2022/01/05 04:29:49;;;;;;;10.60;2.40;;;3.10;99.90;;;;;;5080946;28;20047;-92
2022/01/05 04:32:15;;;;;;;12.43;2.97;;;3.10;99.90;;;;;;5063969;28;20057;-92
2022/01/05 04:34:41;;;;;;;8.53;2.10;;;3.20;99.90;;;;;;5082981;28;20059;-90
2022/01/05 04:37:07;;;;;;;11.13;2.70;;;3.20;99.90;;;;;;5080169;28;20484;-92
2022/01/05 04:39:34;;;;;;;15.37;2.50;;;3.30;99.90;;;;;;5091193;28;20051;-92
2022/01/05 04:42:00;;;;;;;12.80;2.33;;;3.30;99.90;;;;;;5076897;28;20064;-93
2022/01/05 04:44:26;;;;;;;10.33;2.17;;;3.30;99.90;;;;;;5078361;28;20935;-92
2022/01/05 04:46:52;;;;;;;15.00;2.80;;;3.30;99.90;;;;;;5118017;28;20097;-91
2022/01/05 04:49:17;;;;;;;6.53;2.10;;;3.40;99.90;;;;;;5079651;28;20031;-91
2022/01/05 04:51:43;;;;;;;14.57;2.50;;;3.40;99.90;;;;;;5083265;28;20067;-92
2022/01/05 04:54:09;;;;;;;17.93;2.50;;;3.40;99.90;;;;;;5073106;28;20525;-91
2022/01/05 04:56:35;;;;;;;13.37;2.63;;;3.40;99.90;;;;;;5076947;28;20039;-92
2022/01/05 04:59:00;;;;;;;12.70;2.30;;;3.40;99.90;;;;;;5100437;28;20516;-92
2022/01/05 05:01:26;;;;;;;6.83;2.10;;;3.40;99.90;;;;;;5060841;28;20059;-92
2022/01/05 05:03:52;;;;;;;9.63;2.13;;;3.30;99.90;;;;;;5058547;28;20051;-93
2022/01/05 05:06:18;;;;;;;11.03;2.03;;;3.30;99.90;;;;;;5078720;28;20036;-92
2022/01/05 05:08:43;;;;;;;9.87;1.97;;;3.30;99.90;;;;;;5059955;28;20072;-92
2022/01/05 05:11:09;;;;;;;13.57;2.50;;;3.30;99.90;;;;;;5060424;28;20044;-92
2022/01/05 05:13:35;;;;;;;10.30;1.73;;;3.40;99.90;;;;;;5068646;28;20044;-92
2022/01/05 05:16:01;;;;;;;15.03;2.10;;;3.40;99.90;;;;;;5080502;28;20048;-93
2022/01/05 05:18:27;;;;;;;12.30;2.63;;;3.40;99.90;;;;;;5064430;28;20071;-92
2022/01/05 05:20:53;;;;;;;10.07;2.40;;;3.40;99.90;;;;;;5085749;28;20039;-89
2022/01/05 05:23:19;;;;;;;10.57;2.33;;;3.40;99.90;;;;;;5099615;28;20130;-92
2022/01/05 05:25:44;;;;;;;7.27;2.33;;;3.50;99.90;;;;;;5096739;28;20083;-93
2022/01/05 05:28:10;;;;;;;8.10;2.23;;;3.40;99.90;;;;;;5093361;28;20050;-92
2022/01/05 05:30:37;;;;;;;5.60;2.00;;;3.50;99.90;;;;;;5116716;28;20044;-91
2022/01/05 05:33:04;;;;;;;8.63;2.30;;;3.40;99.90;;;;;;5064256;28;20055;-91
2022/01/05 05:35:30;;;;;;;8.83;1.97;;;3.40;99.90;;;;;;5099151;28;20059;-92
2022/01/05 05:37:56;;;;;;;17.43;2.87;;;3.40;99.90;;;;;;5083943;28;20059;-91
2022/01/05 05:40:22;;;;;;;13.13;2.50;;;3.40;99.90;;;;;;5095740;28;20050;-91
2022/01/05 05:42:48;;;;;;;10.13;2.20;;;3.40;99.90;;;;;;5057928;28;20130;-91
2022/01/05 05:45:15;;;;;;;9.00;1.93;;;3.40;99.90;;;;;;5068290;28;20107;-89
2022/01/05 05:47:41;;;;;;;9.13;2.30;;;3.40;99.90;;;;;;5098164;28;20081;-91
2022/01/05 05:50:08;;;;;;;16.23;2.37;;;3.50;99.90;;;;;;5079555;28;20048;-89
2022/01/05 05:52:34;;;;;;;9.03;2.27;;;3.50;99.90;;;;;;5090273;28;20043;-91
2022/01/05 05:55:00;;;;;;;9.30;1.97;;;3.60;99.90;;;;;;5054656;28;20070;-89
2022/01/05 05:57:26;;;;;;;13.73;2.37;;;3.60;99.90;;;;;;5105908;28;20043;-89
2022/01/05 05:59:51;;;;;;;11.50;2.53;;;3.60;99.90;;;;;;5081256;28;20563;-92
2022/01/05 06:02:17;;;;;;;11.57;2.37;;;3.70;99.90;;;;;;5099706;28;20146;-90
2022/01/05 06:04:43;;;;;;;11.70;1.70;;;3.70;99.90;;;;;;5096390;28;20039;-89
2022/01/05 06:07:09;;;;;;;10.07;2.10;;;3.70;99.90;;;;;;5066671;28;20419;-90
2022/01/05 06:09:34;;;;;;;9.73;2.30;;;3.70;99.90;;;;;;5063742;28;20044;-90
2022/01/05 06:12:00;;;;;;;9.13;2.23;;;3.80;99.90;;;;;;5078482;28;20047;-89
2022/01/05 06:14:26;;;;;;;10.07;2.60;;;3.80;99.90;;;;;;5064751;28;20211;-90
2022/01/05 06:16:52;;;;;;;9.30;2.40;;;3.80;99.90;;;;;;5101956;28;20044;-89
2022/01/05 06:19:17;;;;;;;13.60;2.60;;;3.80;99.90;;;;;;5062143;28;20036;-91
2022/01/05 06:21:44;;;;;;;12.27;2.07;;;3.90;99.90;;;;;;5069169;28;20035;-90
2022/01/05 06:24:11;;;;;;;12.37;2.47;;;3.90;99.90;;;;;;5075812;28;20043;-90
2022/01/05 06:26:37;;;;;;;10.87;2.33;;;3.90;99.90;;;;;;5065122;28;20529;-88
2022/01/05 06:29:03;;;;;;;14.20;2.67;;;4.00;99.90;;;;;;5065363;28;20046;-91
2022/01/05 06:31:28;;;;;;;12.77;2.50;;;4.00;99.90;;;;;;5078800;28;20083;-89
2022/01/05 06:33:54;;;;;;;10.20;1.97;;;4.00;99.90;;;;;;5072344;28;20051;-90
2022/01/05 06:36:20;;;;;;;10.07;2.70;;;3.90;99.90;;;;;;5097808;28;20134;-87
2022/01/05 06:38:46;;;;;;;9.87;2.83;;;3.90;99.90;;;;;;5061864;28;20036;-91
2022/01/05 06:41:11;;;;;;;10.40;2.23;;;3.80;99.90;;;;;;5065658;28;20058;-90
2022/01/05 06:43:37;;;;;;;14.90;2.43;;;3.80;99.90;;;;;;5060627;28;20032;-89
2022/01/05 06:46:03;;;;;;;9.30;2.13;;;3.80;99.90;;;;;;5047770;28;20089;-90
2022/01/05 06:48:29;;;;;;;10.87;2.20;;;3.80;99.90;;;;;;5060448;28;20040;-90
2022/01/05 06:50:54;;;;;;;13.10;2.13;;;3.80;99.90;;;;;;5065652;28;20113;-91
2022/01/05 06:53:20;;;;;;;9.57;1.80;;;3.80;99.90;;;;;;5069811;28;20453;-90
2022/01/05 06:55:46;;;;;;;11.33;2.30;;;3.80;99.90;;;;;;5087768;28;20070;-89
2022/01/05 06:58:12;;;;;;;12.57;2.40;;;3.80;99.90;;;;;;5084354;28;20050;-88
2022/01/05 07:00:38;;;;;;;10.43;2.30;;;3.80;99.90;;;;;;5099642;28;20031;-88
2022/01/05 07:03:04;;;;;;;11.43;2.10;;;3.90;99.90;;;;;;5092580;28;20092;-91
2022/01/05 07:05:31;;;;;;;9.43;2.30;;;3.90;99.90;;;;;;5117335;28;20054;-90
2022/01/05 07:07:57;;;;;;;12.30;2.60;;;3.90;99.90;;;;;;5085154;28;20048;-90
2022/01/05 07:10:22;;;;;;;9.30;2.07;;;3.90;99.90;;;;;;5098726;28;20043;-84
2022/01/05 07:12:48;;;;;;;9.67;2.17;;;3.90;99.90;;;;;;5087632;28;20051;-83
2022/01/05 07:15:15;;;;;;;10.93;2.40;;;3.90;99.90;;;;;;5070320;28;20047;-88
2022/01/05 07:17:41;;;;;;;11.07;3.03;;;3.90;99.90;;;;;;5090242;28;20073;-88
2022/01/05 07:20:08;;;;;;;12.77;1.93;;;3.90;99.90;;;;;;5071375;28;20047;-77
2022/01/05 07:22:33;;;;;;;7.73;1.87;;;3.90;99.90;;;;;;5099258;28;20048;-77
2022/01/05 07:24:59;;;;;;;10.27;1.60;;;4.00;99.90;;;;;;5099713;28;20077;-77
2022/01/05 07:27:25;;;;;;;6.50;2.57;;;3.90;99.90;;;;;;5081204;28;20055;-79
2022/01/05 07:29:51;;;;;;;7.83;1.80;;;3.90;99.90;;;;;;5061752;28;20042;-82
2022/01/05 07:32:17;;;;;;;8.23;1.70;;;4.00;99.90;;;;;;5092951;28;20051;-76
2022/01/05 07:34:43;;;;;;;6.90;1.70;;;4.00;99.90;;;;;;5084690;28;20044;-82
2022/01/05 07:37:09;;;;;;;8.63;1.37;;;4.00;99.90;;;;;;5075149;28;20048;-86
2022/01/05 07:39:36;;;;;;;6.70;1.50;;;4.00;99.90;;;;;;5081884;28;20065;-91
2022/01/05 07:42:02;;;;;;;6.53;1.20;;;3.90;99.90;;;;;;5076947;28;20074;-87
2022/01/05 07:44:28;;;;;;;4.13;1.07;;;4.00;99.90;;;;;;5077202;28;20403;-87
2022/01/05 07:46:54;;;;;;;9.90;1.30;;;4.00;99.90;;;;;;5057831;28;20048;-88
2022/01/05 07:49:19;;;;;;;5.23;1.10;;;4.00;99.90;;;;;;5063749;28;20040;-88
2022/01/05 07:51:45;;;;;;;7.80;1.20;;;4.00;99.90;;;;;;5060843;28;20039;-86
2022/01/05 07:54:11;;;;;;;4.87;1.20;;;4.00;99.90;;;;;;5083216;28;20062;-94
2022/01/05 07:56:37;;;;;;;5.77;1.13;;;3.90;99.90;;;;;;5078004;28;20035;-82
2022/01/05 07:59:03;;;;;;;6.20;1.33;;;3.90;99.90;;;;;;5082647;28;20044;-91
2022/01/05 08:01:29;;;;;;;3.57;1.30;;;3.90;99.90;;;;;;5084788;28;20056;-84
2022/01/05 08:03:55;;;;;;;7.53;1.40;;;3.90;99.90;;;;;;5064818;28;20043;-81
2022/01/05 08:06:22;;;;;;;5.63;1.20;;;4.00;99.90;;;;;;5095212;28;20073;-84
2022/01/05 08:08:48;;;;;;;4.27;1.20;;;4.00;99.90;;;;;;5104799;28;20062;-82
2022/01/05 08:11:14;;;;;;;5.13;1.30;;;4.00;99.90;;;;;;5081825;28;20099;-82
2022/01/05 08:13:40;;;;;;;6.50;1.30;;;3.90;99.90;;;;;;5077537;28;20074;-82
2022/01/05 08:16:06;;;;;;;5.13;1.47;;;4.00;99.90;;;;;;5088538;28;20047;-83
2022/01/05 08:18:32;;;;;;;7.20;1.47;;;4.00;99.90;;;;;;5084632;28;20048;-82
2022/01/05 08:20:57;;;;;;;6.63;1.53;;;4.10;99.90;;;;;;5096043;28;20391;-83
2022/01/05 08:23:24;;;;;;;6.83;1.43;;;4.10;99.90;;;;;;5081386;28;20039;-82
2022/01/05 08:25:51;;;;;;;6.93;1.73;;;4.10;99.90;;;;;;5097535;28;20039;-81
2022/01/05 08:28:17;;;;;;;10.17;1.50;;;4.20;99.90;;;;;;5081912;28;20039;-82
2022/01/05 08:30:45;;;;;;;8.43;1.47;;;4.20;99.90;;;;;;5078311;28;20072;-83
2022/01/05 08:33:13;;;;;;;4.73;1.33;;;4.20;99.90;;;;;;5063579;28;20036;-84
2022/01/05 08:35:39;;;;;;;6.37;1.20;;;4.30;99.90;;;;;;5060704;28;20048;-83
2022/01/05 08:38:04;;;;;;;7.37;1.20;;;4.30;99.90;;;;;;5097027;28;20089;-83
2022/01/05 08:40:32;;;;;;;8.20;1.80;;;4.40;99.90;;;;;;5096471;28;20048;-83
2022/01/05 08:42:58;;;;;;;7.07;1.90;;;4.40;99.90;;;;;;5093791;28;20075;-83
2022/01/05 08:45:25;;;;;;;7.47;1.47;;;4.50;99.90;;;;;;5081227;28;20042;-83
2022/01/05 08:47:53;;;;;;;8.40;1.40;;;4.50;99.90;;;;;;5093282;28;20149;-83
2022/01/05 08:50:29;;;;;;;11.87;1.90;;;4.50;99.90;;;;;;5105014;28;20107;-81
2022/01/05 08:52:57;;;;;;;5.43;1.60;;;4.60;99.90;;;;;;5081359;28;20059;-82
2022/01/05 08:55:27;;;;;;;10.00;2.00;;;4.60;99.90;;;;;;5097400;28;20111;-83
2022/01/05 08:57:53;;;;;;;8.57;1.47;;;4.60;99.90;;;;;;5085767;28;20040;-83
2022/01/05 09:00:19;;;;;;;9.03;1.63;;;4.70;99.90;;;;;;5087344;28;20108;-83
2022/01/05 09:02:45;;;;;;;11.80;2.10;;;4.80;99.90;;;;;;5101464;28;20039;-83
2022/01/05 09:05:11;;;;;;;12.23;2.27;;;4.90;99.90;;;;;;5078866;28;20103;-83
2022/01/05 09:07:37;;;;;;;10.57;1.80;;;4.90;99.90;;;;;;5065366;28;20078;-82
2022/01/05 09:10:04;;;;;;;11.00;2.03;;;5.00;99.90;;;;;;5087663;28;20093;-83
2022/01/05 09:12:31;;;;;;;11.27;2.00;;;5.00;99.90;;;;;;5075139;28;20085;-83
2022/01/05 09:14:57;;;;;;;8.33;1.90;;;5.20;99.90;;;;;;5094639;28;20079;-83
2022/01/05 09:17:24;;;;;;;14.83;2.27;;;5.20;99.90;;;;;;5083901;28;20048;-83
2022/01/05 09:19:51;;;;;;;9.90;1.57;;;5.30;99.90;;;;;;5076478;28;20071;-83
2022/01/05 09:22:17;;;;;;;8.07;1.30;;;5.30;99.90;;;;;;5091055;28;20039;-82
2022/01/05 09:24:43;;;;;;;10.70;1.80;;;5.40;99.90;;;;;;5076636;28;20044;-83
2022/01/05 09:27:08;;;;;;;11.37;1.70;;;5.40;99.90;;;;;;5059663;28;20036;-83
2022/01/05 09:29:34;;;;;;;7.37;1.60;;;5.40;99.90;;;;;;5079016;28;20048;-83
2022/01/05 09:32:05;;;;;;;7.53;1.70;;;5.40;99.90;;;;;;5071257;28;20392;-82
2022/01/05 09:34:31;;;;;;;13.60;2.33;;;5.40;99.90;;;;;;5052297;28;20067;-83
2022/01/05 09:37:03;;;;;;;9.90;1.63;;;5.40;99.90;;;;;;5060428;28;20075;-83
2022/01/05 09:42:14;;;;;;;7.17;1.50;;;5.30;99.90;;;;;;5084824;28;20094;-83
2022/01/05 09:44:45;;;;;;;8.87;1.60;;;5.30;99.90;;;;;;5083203;28;20033;-83
2022/01/05 09:47:21;;;;;;;8.00;1.93;;;5.30;99.90;;;;;;5074557;28;20166;-82
2022/01/05 09:50:04;;;;;;;15.10;2.10;;;5.30;99.90;;;;;;5072884;28;20111;-82
2022/01/05 09:52:31;;;;;;;19.07;2.27;;;5.40;99.90;;;;;;5070041;28;20241;-83
2022/01/05 09:54:58;;;;;;;8.37;2.13;;;5.50;99.90;;;;;;5069934;28;20054;-82
2022/01/05 09:57:24;;;;;;;12.20;2.10;;;5.50;99.90;;;;;;5057510;28;20044;-83
2022/01/05 09:59:51;;;;;;;8.37;2.03;;;5.60;99.90;;;;;;5076406;28;20051;-83
2022/01/05 10:02:18;;;;;;;9.77;1.80;;;5.70;99.90;;;;;;5047273;28;20053;-82
2022/01/05 10:04:45;;;;;;;14.03;1.87;;;5.70;99.90;;;;;;5100634;28;20070;-83
2022/01/05 10:07:12;;;;;;;15.37;2.33;;;5.70;99.90;;;;;;5051851;28;20392;-84
2022/01/05 10:09:39;;;;;;;20.50;2.53;;;5.70;99.90;;;;;;5059697;28;20040;-83
2022/01/05 10:12:06;;;;;;;11.03;2.47;;;5.70;99.90;;;;;;5075152;28;20063;-83
2022/01/05 10:14:32;;;;;;;9.83;2.90;;;5.70;99.90;;;;;;5069272;28;20063;-82
2022/01/05 10:17:10;;;;;;;16.87;2.47;;;5.70;99.90;;;;;;5072094;28;20613;-83
2022/01/05 10:19:37;;;;;;;15.47;2.57;;;5.70;99.90;;;;;;5073689;28;20059;-83
2022/01/05 10:22:23;;;;;;;19.80;2.83;;;5.90;99.90;;;;;;5068454;28;20044;-83
2022/01/05 10:24:50;;;;;;;11.93;2.80;;;5.80;99.90;;;;;;5068978;28;20079;-83
2022/01/05 10:27:21;;;;;;;14.33;2.30;;;5.90;99.90;;;;;;5086833;28;20049;-83
2022/01/05 10:29:58;;;;;;;14.87;3.07;;;5.90;99.90;;;;;;5072277;28;20059;-87
2022/01/05 10:32:26;;;;;;;13.97;3.10;;;5.90;99.90;;;;;;5075258;28;20044;-85
2022/01/05 10:35:26;;;;;;;21.67;3.37;;;5.90;99.90;;;;;;5060241;28;20056;-87
2022/01/05 10:38:04;;;;;;;15.57;3.00;;;5.90;99.90;;;;;;5083415;28;20076;-77
2022/01/05 10:40:35;;;;;;;12.77;3.37;;;5.90;99.90;;;;;;5113070;28;20048;-80
2022/01/05 10:43:10;;;;;;;27.57;3.93;;;6.00;99.90;;;;;;5080230;28;20046;-81
2022/01/05 10:45:41;;;;;;;18.03;3.33;;;6.10;99.90;;;;;;5098409;28;20312;-82
2022/01/05 10:48:09;;;;;;;18.10;3.72;;;6.20;99.90;;;;;;5079098;28;20044;-82
2022/01/05 10:50:36;;;;;;;16.63;3.03;;;6.30;99.90;;;;;;5074313;28;20044;-82
2022/01/05 10:53:03;;;;;;;20.23;4.00;;;6.40;99.90;;;;;;5062409;28;20102;-81
2022/01/05 10:55:31;;;;;;;18.40;3.37;;;6.50;99.90;;;;;;5080036;28;20311;-81
2022/01/05 10:57:59;;;;;;;18.80;3.53;;;6.50;99.90;;;;;;5087784;28;20032;-81
2022/01/05 11:00:55;;;;;;;19.20;3.33;;;6.60;99.90;;;;;;5104313;28;20044;-81
2022/01/05 11:03:28;;;;;;;14.80;2.90;;;6.70;99.90;;;;;;5093744;28;20040;-79
2022/01/05 11:06:06;;;;;;;13.33;2.80;;;6.80;99.90;;;;;;5091966;28;20094;-81
2022/01/05 11:08:46;;;;;;;13.87;2.73;;;6.90;99.90;;;;;;5085942;28;20047;-82
2022/01/05 11:11:39;;;;;;;16.50;3.00;;;7.00;99.90;;;;;;5085475;28;20043;-81
2022/01/05 11:14:12;;;;;;;14.63;2.67;;;7.00;99.90;;;;;;5093349;28;20055;-81
2022/01/05 11:16:40;;;;;;;13.90;2.90;;;7.00;99.90;;;;;;5082227;28;20046;-81
2022/01/05 11:19:29;;;;;;;17.13;3.37;;;7.00;99.90;;;;;;5089224;28;20440;-82
2022/01/05 11:22:27;;;;;;;18.13;2.97;;;7.10;99.90;;;;;;5086240;28;20037;-81
2022/01/05 11:24:53;;;;;;;17.90;3.20;;;7.10;99.90;;;;;;5050893;28;20123;-82
2022/01/05 11:27:26;;;;;;;13.70;2.63;;;7.20;99.90;;;;;;5069444;28;20086;-82
2022/01/05 11:29:53;;;;;;;15.17;2.80;;;7.20;99.90;;;;;;5089037;28;20036;-82
2022/01/05 11:32:25;;;;;;;13.33;3.13;;;7.20;99.90;;;;;;5085628;28;20103;-82
2022/01/05 11:34:52;;;;;;;18.00;2.90;;;7.20;99.90;;;;;;5087459;28;20063;-82
2022/01/05 11:37:18;;;;;;;17.67;3.30;;;7.20;99.90;;;;;;5107287;28;20107;-81
2022/01/05 11:39:46;;;;;;;14.87;3.13;;;7.30;99.90;;;;;;5089363;28;20035;-81
2022/01/05 11:42:15;;;;;;;15.37;2.60;;;7.30;99.90;;;;;;5090993;28;20110;-82
2022/01/05 11:44:54;;;;;;;10.97;2.80;;;7.40;99.90;;;;;;5097554;28;20035;-81
2022/01/05 11:47:29;;;;;;;17.47;3.27;;;7.40;99.90;;;;;;5083407;28;20048;-82
2022/01/05 11:50:17;;;;;;;16.57;3.03;;;7.50;99.90;;;;;;5086046;28;20059;-82
2022/01/05 11:52:52;;;;;;;17.53;3.33;;;7.60;99.90;;;;;;5090688;28;20438;-82
2022/01/05 11:55:18;;;;;;;14.30;2.33;;;7.50;99.90;;;;;;5090208;28;20062;-82
2022/01/05 11:58:20;;;;;;;9.33;2.47;;;7.50;99.90;;;;;;5063219;28;20079;-83
2022/01/05 12:00:48;;;;;;;14.73;2.72;;;7.50;99.90;;;;;;5092721;28;20044;-81
2022/01/05 12:03:59;;;;;;;12.20;2.50;;;7.50;99.90;;;;;;5086265;28;20039;-82
2022/01/05 12:06:33;;;;;;;12.57;2.57;;;7.60;99.90;;;;;;5113844;28;20387;-83
2022/01/05 12:09:03;;;;;;;12.37;2.30;;;7.70;99.90;;;;;;5091808;28;20136;-82
2022/01/05 12:11:38;;;;;;;14.47;2.70;;;7.70;99.90;;;;;;5089247;28;20035;-82
2022/01/05 12:14:07;;;;;;;15.57;3.30;;;7.70;99.90;;;;;;5107832;28;21143;-82
2022/01/05 12:17:11;;;;;;;13.87;2.70;;;7.70;99.90;;;;;;5093513;28;20046;-82
2022/01/05 12:19:46;;;;;;;18.77;3.30;;;7.70;99.90;;;;;;5096191;28;20065;-82
2022/01/05 12:22:19;;;;;;;15.30;2.63;;;7.70;99.90;;;;;;5106102;28;20184;-82
2022/01/05 12:25:03;;;;;;;13.53;2.63;;;7.80;99.90;;;;;;5096288;28;20074;-83
2022/01/05 12:27:33;;;;;;;11.90;2.70;;;7.80;99.90;;;;;;5107188;28;20079;-82
2022/01/05 12:30:03;;;;;;;20.23;2.83;;;7.80;99.90;;;;;;5102061;28;20055;-80
2022/01/05 12:32:38;;;;;;;10.53;2.30;;;7.80;99.90;;;;;;5089842;28;20050;-82
2022/01/05 12:35:17;;;;;;;15.00;2.10;;;7.70;99.90;;;;;;5047079;28;1134412;-82
2022/01/05 12:37:47;;;;;;;10.17;2.40;;;7.70;99.90;;;;;;5094235;28;20078;-83
2022/01/05 12:40:35;;;;;;;9.03;1.90;;;7.60;99.90;;;;;;5095208;28;20071;-82
2022/01/05 12:43:13;;;;;;;12.23;2.20;;;7.50;99.90;;;;;;5082106;28;20052;-82
2022/01/05 12:46:08;;;;;;;8.80;2.10;;;7.50;99.90;;;;;;5090002;28;20069;-82
2022/01/05 12:48:37;;;;;;;9.47;2.00;;;7.60;99.90;;;;;;5109850;28;20111;-82
2022/01/05 12:51:18;;;;;;;12.87;2.40;;;7.60;99.90;;;;;;5083242;28;20096;-82
2022/01/05 12:53:49;;;;;;;11.57;2.20;;;7.70;99.90;;;;;;5082517;28;20044;-81
2022/01/05 12:56:23;;;;;;;15.85;2.63;;;7.70;99.90;;;;;;5087194;28;20051;-82
2022/01/05 12:58:51;;;;;;;18.60;2.30;;;7.70;99.90;;;;;;5066170;28;20498;-82
2022/01/05 13:01:18;;;;;;;12.87;3.00;;;7.60;99.90;;;;;;5089458;28;20051;-82